sensor_id;sensor_type;location;lat;lon;timestamp;pressure;altitude;pressure_sealevel;temperature;humidity
54816;BME280;40715;55.752;37.884;2024-01-25T00:00:20;97802.88;;;28.38;26.14
54816;BME280;40715;55.752;37.884;2024-01-25T00:02:47;97809.38;;;28.44;25.96
54816;BME280;40715;55.752;37.884;2024-01-25T00:05:14;97802.94;;;28.45;25.87
54816;BME280;40715;55.752;37.884;2024-01-25T00:07:50;97793.13;;;28.44;25.74
54816;BME280;40715;55.752;37.884;2024-01-25T00:10:18;97790.81;;;28.41;25.95
54816;BME280;40715;55.752;37.884;2024-01-25T00:12:45;97784.81;;;28.46;26.07
54816;BME280;40715;55.752;37.884;2024-01-25T00:15:13;97788.94;;;28.41;25.88
54816;BME280;40715;55.752;37.884;2024-01-25T00:17:40;97774.84;;;28.46;25.89
54816;BME280;40715;55.752;37.884;2024-01-25T00:20:09;97772.25;;;28.38;26.06
54816;BME280;40715;55.752;37.884;2024-01-25T00:22:37;97770.56;;;28.37;25.85
54816;BME280;40715;55.752;37.884;2024-01-25T00:25:05;97767.59;;;28.32;25.93
54816;BME280;40715;55.752;37.884;2024-01-25T00:27:33;97763.47;;;28.36;25.75
54816;BME280;40715;55.752;37.884;2024-01-25T00:30:00;97757.22;;;28.35;25.68
54816;BME280;40715;55.752;37.884;2024-01-25T00:32:32;97750.78;;;28.36;25.72
54816;BME280;40715;55.752;37.884;2024-01-25T00:34:59;97746.84;;;28.39;25.69
54816;BME280;40715;55.752;37.884;2024-01-25T00:37:29;97754.78;;;28.40;25.89
54816;BME280;40715;55.752;37.884;2024-01-25T00:39:57;97752.69;;;28.42;25.77
54816;BME280;40715;55.752;37.884;2024-01-25T00:42:24;97750.47;;;28.46;25.89
54816;BME280;40715;55.752;37.884;2024-01-25T00:44:51;97751.47;;;28.45;25.84
54816;BME280;40715;55.752;37.884;2024-01-25T00:47:19;97750.47;;;28.46;25.88
54816;BME280;40715;55.752;37.884;2024-01-25T00:49:46;97751.47;;;28.45;25.85
54816;BME280;40715;55.752;37.884;2024-01-25T00:52:14;97751.69;;;28.44;25.96
54816;BME280;40715;55.752;37.884;2024-01-25T00:54:41;97741.03;;;28.42;25.82
54816;BME280;40715;55.752;37.884;2024-01-25T00:57:08;97743.88;;;28.34;25.92
54816;BME280;40715;55.752;37.884;2024-01-25T00:59:35;97734.72;;;28.35;25.86
54816;BME280;40715;55.752;37.884;2024-01-25T01:02:04;97737.38;;;28.28;26.04
54816;BME280;40715;55.752;37.884;2024-01-25T01:04:34;97727.94;;;28.24;25.96
54816;BME280;40715;55.752;37.884;2024-01-25T01:07:11;97724.66;;;28.29;26.05
54816;BME280;40715;55.752;37.884;2024-01-25T01:09:39;97722.59;;;28.31;25.88
54816;BME280;40715;55.752;37.884;2024-01-25T01:12:06;97712.59;;;28.31;26.02
54816;BME280;40715;55.752;37.884;2024-01-25T01:14:34;97709.00;;;28.24;25.63
54816;BME280;40715;55.752;37.884;2024-01-25T01:17:01;97707.50;;;28.21;25.92
54816;BME280;40715;55.752;37.884;2024-01-25T01:19:29;97707.91;;;28.18;26.16
54816;BME280;40715;55.752;37.884;2024-01-25T01:21:56;97713.50;;;28.17;25.98
54816;BME280;40715;55.752;37.884;2024-01-25T01:24:23;97698.88;;;28.11;26.20
54816;BME280;40715;55.752;37.884;2024-01-25T01:26:50;97699.09;;;28.10;26.10
54816;BME280;40715;55.752;37.884;2024-01-25T01:29:17;97691.97;;;28.09;25.91
54816;BME280;40715;55.752;37.884;2024-01-25T01:31:45;97690.75;;;28.11;26.02
54816;BME280;40715;55.752;37.884;2024-01-25T01:34:12;97682.66;;;28.11;26.03
54816;BME280;40715;55.752;37.884;2024-01-25T01:36:40;97680.34;;;28.08;26.16
54816;BME280;40715;55.752;37.884;2024-01-25T01:39:07;97680.97;;;28.10;26.20
54816;BME280;40715;55.752;37.884;2024-01-25T01:41:34;97679.94;;;28.11;26.12
54816;BME280;40715;55.752;37.884;2024-01-25T01:44:02;97676.59;;;28.09;26.13
54816;BME280;40715;55.752;37.884;2024-01-25T01:46:33;97685.75;;;28.08;26.22
54816;BME280;40715;55.752;37.884;2024-01-25T01:49:04;97675.13;;;28.06;26.03
54816;BME280;40715;55.752;37.884;2024-01-25T01:51:32;97666.59;;;28.10;26.08
54816;BME280;40715;55.752;37.884;2024-01-25T01:54:03;97673.69;;;28.11;26.13
54816;BME280;40715;55.752;37.884;2024-01-25T01:56:33;97672.09;;;28.16;26.00
54816;BME280;40715;55.752;37.884;2024-01-25T01:59:01;97670.63;;;28.20;25.98
54816;BME280;40715;55.752;37.884;2024-01-25T02:01:29;97671.91;;;28.24;25.78
54816;BME280;40715;55.752;37.884;2024-01-25T02:03:56;97675.22;;;28.20;25.84
54816;BME280;40715;55.752;37.884;2024-01-25T02:06:23;97670.41;;;28.15;25.67
54816;BME280;40715;55.752;37.884;2024-01-25T02:08:51;97673.72;;;28.17;25.81
54816;BME280;40715;55.752;37.884;2024-01-25T02:11:19;97674.81;;;28.23;25.68
54816;BME280;40715;55.752;37.884;2024-01-25T02:13:47;97678.19;;;28.25;25.72
54816;BME280;40715;55.752;37.884;2024-01-25T02:16:15;97667.16;;;28.27;25.73
54816;BME280;40715;55.752;37.884;2024-01-25T02:19:02;97673.66;;;28.32;25.53
54816;BME280;40715;55.752;37.884;2024-01-25T02:21:30;97676.44;;;28.17;25.78
54816;BME280;40715;55.752;37.884;2024-01-25T02:23:57;97671.63;;;28.13;25.69
54816;BME280;40715;55.752;37.884;2024-01-25T02:26:23;97675.41;;;28.18;25.77
54816;BME280;40715;55.752;37.884;2024-01-25T02:28:50;97677.09;;;28.19;25.73
54816;BME280;40715;55.752;37.884;2024-01-25T02:31:17;97673.09;;;28.15;25.68
54816;BME280;40715;55.752;37.884;2024-01-25T02:33:44;97672.66;;;28.12;25.72
54816;BME280;40715;55.752;37.884;2024-01-25T02:36:11;97673.69;;;28.11;25.80
54816;BME280;40715;55.752;37.884;2024-01-25T02:38:38;97678.25;;;28.10;25.81
54816;BME280;40715;55.752;37.884;2024-01-25T02:41:05;97676.22;;;28.12;25.96
54816;BME280;40715;55.752;37.884;2024-01-25T02:43:32;97677.84;;;28.13;25.73
54816;BME280;40715;55.752;37.884;2024-01-25T02:45:59;97660.41;;;28.16;26.45
54816;BME280;40715;55.752;37.884;2024-01-25T02:48:26;97671.22;;;28.16;26.83
54816;BME280;40715;55.752;37.884;2024-01-25T02:50:53;97663.97;;;28.16;27.01
54816;BME280;40715;55.752;37.884;2024-01-25T02:53:20;97676.72;;;28.22;27.32
54816;BME280;40715;55.752;37.884;2024-01-25T02:55:47;97670.69;;;28.27;28.14
54816;BME280;40715;55.752;37.884;2024-01-25T02:58:14;97669.47;;;28.30;28.74
54816;BME280;40715;55.752;37.884;2024-01-25T03:00:41;97673.00;;;28.30;29.35
54816;BME280;40715;55.752;37.884;2024-01-25T03:03:08;97661.16;;;28.31;29.81
54816;BME280;40715;55.752;37.884;2024-01-25T03:05:35;97659.28;;;28.32;30.14
54816;BME280;40715;55.752;37.884;2024-01-25T03:08:02;97651.16;;;28.32;30.20
54816;BME280;40715;55.752;37.884;2024-01-25T03:10:29;97658.44;;;28.31;30.42
54816;BME280;40715;55.752;37.884;2024-01-25T03:12:56;97654.06;;;28.30;30.41
54816;BME280;40715;55.752;37.884;2024-01-25T03:15:23;97647.75;;;28.23;30.17
54816;BME280;40715;55.752;37.884;2024-01-25T03:17:50;97644.66;;;28.26;30.39
54816;BME280;40715;55.752;37.884;2024-01-25T03:20:17;97647.56;;;28.24;30.40
54816;BME280;40715;55.752;37.884;2024-01-25T03:22:44;97643.44;;;28.29;30.41
54816;BME280;40715;55.752;37.884;2024-01-25T03:25:11;97630.16;;;28.34;30.28
54816;BME280;40715;55.752;37.884;2024-01-25T03:27:38;97636.00;;;28.37;30.19
54816;BME280;40715;55.752;37.884;2024-01-25T03:30:05;97630.41;;;28.39;30.07
54816;BME280;40715;55.752;37.884;2024-01-25T03:32:33;97625.34;;;28.36;29.91
54816;BME280;40715;55.752;37.884;2024-01-25T03:35:00;97632.25;;;28.38;29.85
54816;BME280;40715;55.752;37.884;2024-01-25T03:37:29;97626.63;;;28.33;29.79
54816;BME280;40715;55.752;37.884;2024-01-25T03:39:56;97629.47;;;28.25;29.88
54816;BME280;40715;55.752;37.884;2024-01-25T03:42:23;97620.69;;;28.23;29.75
54816;BME280;40715;55.752;37.884;2024-01-25T03:44:51;97627.16;;;28.22;29.75
54816;BME280;40715;55.752;37.884;2024-01-25T03:47:18;97626.56;;;28.27;29.85
54816;BME280;40715;55.752;37.884;2024-01-25T03:49:45;97615.91;;;28.25;29.58
54816;BME280;40715;55.752;37.884;2024-01-25T03:52:12;97614.88;;;28.26;29.21
54816;BME280;40715;55.752;37.884;2024-01-25T03:54:39;97614.88;;;28.26;29.36
54816;BME280;40715;55.752;37.884;2024-01-25T03:57:06;97612.13;;;28.19;29.25
54816;BME280;40715;55.752;37.884;2024-01-25T03:59:33;97605.44;;;28.15;29.32
54816;BME280;40715;55.752;37.884;2024-01-25T04:02:00;97608.13;;;28.15;29.35
54816;BME280;40715;55.752;37.884;2024-01-25T04:04:27;97596.47;;;28.15;28.99
54816;BME280;40715;55.752;37.884;2024-01-25T04:06:54;97590.16;;;28.07;29.15
54816;BME280;40715;55.752;37.884;2024-01-25T04:09:21;97586.63;;;28.07;29.24
54816;BME280;40715;55.752;37.884;2024-01-25T04:11:48;97587.91;;;28.11;29.08
54816;BME280;40715;55.752;37.884;2024-01-25T04:14:15;97581.06;;;28.15;28.85
54816;BME280;40715;55.752;37.884;2024-01-25T04:16:42;97596.72;;;28.20;28.92
54816;BME280;40715;55.752;37.884;2024-01-25T04:19:09;97591.56;;;28.25;28.62
54816;BME280;40715;55.752;37.884;2024-01-25T04:21:39;97579.50;;;28.28;28.53
54816;BME280;40715;55.752;37.884;2024-01-25T04:24:06;97581.59;;;28.32;28.56
54816;BME280;40715;55.752;37.884;2024-01-25T04:26:33;97578.03;;;28.32;28.47
54816;BME280;40715;55.752;37.884;2024-01-25T04:29:00;97578.84;;;28.26;28.48
54816;BME280;40715;55.752;37.884;2024-01-25T04:31:27;97574.66;;;28.23;28.36
54816;BME280;40715;55.752;37.884;2024-01-25T04:33:54;97592.78;;;28.22;28.29
54816;BME280;40715;55.752;37.884;2024-01-25T04:36:21;97587.38;;;28.22;28.48
54816;BME280;40715;55.752;37.884;2024-01-25T04:38:48;97571.94;;;28.23;28.50
54816;BME280;40715;55.752;37.884;2024-01-25T04:41:15;97579.16;;;28.09;28.42
54816;BME280;40715;55.752;37.884;2024-01-25T04:43:42;97586.81;;;28.05;28.54
54816;BME280;40715;55.752;37.884;2024-01-25T04:46:09;97588.63;;;27.98;28.52
54816;BME280;40715;55.752;37.884;2024-01-25T04:48:36;97582.56;;;27.96;28.52
54816;BME280;40715;55.752;37.884;2024-01-25T04:51:04;97590.69;;;27.96;28.52
54816;BME280;40715;55.752;37.884;2024-01-25T04:53:31;97599.47;;;27.98;28.37
54816;BME280;40715;55.752;37.884;2024-01-25T04:55:57;97590.94;;;28.01;28.31
54816;BME280;40715;55.752;37.884;2024-01-25T04:58:26;97594.88;;;27.99;28.28
54816;BME280;40715;55.752;37.884;2024-01-25T05:00:53;97593.66;;;28.01;28.03
54816;BME280;40715;55.752;37.884;2024-01-25T05:03:22;97594.31;;;28.03;28.16
54816;BME280;40715;55.752;37.884;2024-01-25T05:05:49;97589.06;;;28.02;28.06
54816;BME280;40715;55.752;37.884;2024-01-25T05:08:16;97599.53;;;28.05;28.05
54816;BME280;40715;55.752;37.884;2024-01-25T05:10:43;97592.44;;;28.04;28.08
54816;BME280;40715;55.752;37.884;2024-01-25T05:13:10;97598.28;;;28.07;27.90
54816;BME280;40715;55.752;37.884;2024-01-25T05:15:37;97601.84;;;28.08;27.85
54816;BME280;40715;55.752;37.884;2024-01-25T05:18:05;97587.00;;;28.04;27.82
54816;BME280;40715;55.752;37.884;2024-01-25T05:20:33;97601.84;;;28.08;27.86
54816;BME280;40715;55.752;37.884;2024-01-25T05:23:04;97592.81;;;28.01;27.96
54816;BME280;40715;55.752;37.884;2024-01-25T05:25:31;97597.56;;;27.99;27.86
54816;BME280;40715;55.752;37.884;2024-01-25T05:27:59;97598.22;;;28.01;27.73
54816;BME280;40715;55.752;37.884;2024-01-25T05:30:26;97592.63;;;28.02;27.69
54816;BME280;40715;55.752;37.884;2024-01-25T05:32:54;97597.56;;;27.99;27.70
54816;BME280;40715;55.752;37.884;2024-01-25T05:35:22;97602.59;;;28.02;27.44
54816;BME280;40715;55.752;37.884;2024-01-25T05:37:50;97594.03;;;27.98;27.55
54816;BME280;40715;55.752;37.884;2024-01-25T05:40:17;97596.44;;;27.93;27.51
54816;BME280;40715;55.752;37.884;2024-01-25T05:42:44;97589.47;;;27.99;27.47
54816;BME280;40715;55.752;37.884;2024-01-25T05:45:12;97579.66;;;27.98;27.27
54816;BME280;40715;55.752;37.884;2024-01-25T05:47:39;97591.91;;;27.94;27.48
54816;BME280;40715;55.752;37.884;2024-01-25T05:50:06;97598.13;;;27.94;27.38
54816;BME280;40715;55.752;37.884;2024-01-25T05:52:33;97589.81;;;27.96;27.30
54816;BME280;40715;55.752;37.884;2024-01-25T05:55:07;97595.72;;;27.99;27.23
54816;BME280;40715;55.752;37.884;2024-01-25T05:57:35;97582.00;;;28.01;27.14
54816;BME280;40715;55.752;37.884;2024-01-25T06:00:03;97588.78;;;27.97;27.00
54816;BME280;40715;55.752;37.884;2024-01-25T06:02:32;97589.47;;;27.99;27.16
54816;BME280;40715;55.752;37.884;2024-01-25T06:04:59;97594.03;;;27.98;27.08
54816;BME280;40715;55.752;37.884;2024-01-25T06:07:26;97590.03;;;27.94;27.51
54816;BME280;40715;55.752;37.884;2024-01-25T06:09:54;97588.53;;;27.92;28.27
54816;BME280;40715;55.752;37.884;2024-01-25T06:12:21;97583.25;;;27.83;28.71
54816;BME280;40715;55.752;37.884;2024-01-25T06:14:48;97581.41;;;27.84;28.70
54816;BME280;40715;55.752;37.884;2024-01-25T06:17:15;97584.09;;;27.84;28.96
54816;BME280;40715;55.752;37.884;2024-01-25T06:19:42;97588.22;;;27.80;29.14
54816;BME280;40715;55.752;37.884;2024-01-25T06:22:09;97582.63;;;27.81;29.14
54816;BME280;40715;55.752;37.884;2024-01-25T06:24:36;97587.84;;;27.83;29.15
54816;BME280;40715;55.752;37.884;2024-01-25T06:27:03;97588.81;;;27.75;29.21
54816;BME280;40715;55.752;37.884;2024-01-25T06:29:30;97594.78;;;27.70;29.34
54816;BME280;40715;55.752;37.884;2024-01-25T06:31:57;97581.91;;;27.72;29.34
54816;BME280;40715;55.752;37.884;2024-01-25T06:34:24;97578.94;;;27.67;29.24
54816;BME280;40715;55.752;37.884;2024-01-25T06:36:51;97584.63;;;27.51;29.45
54816;BME280;40715;55.752;37.884;2024-01-25T06:39:18;97584.16;;;27.47;29.67
54816;BME280;40715;55.752;37.884;2024-01-25T06:41:45;97591.88;;;27.50;29.52
54816;BME280;40715;55.752;37.884;2024-01-25T06:44:12;97589.47;;;27.55;29.34
54816;BME280;40715;55.752;37.884;2024-01-25T06:46:39;97590.09;;;27.58;29.25
54816;BME280;40715;55.752;37.884;2024-01-25T06:49:06;97587.47;;;27.64;29.22
54816;BME280;40715;55.752;37.884;2024-01-25T06:51:34;97588.28;;;27.65;29.09
54816;BME280;40715;55.752;37.884;2024-01-25T06:54:01;97592.66;;;27.66;29.02
54816;BME280;40715;55.752;37.884;2024-01-25T06:56:28;97591.91;;;27.72;28.80
54816;BME280;40715;55.752;37.884;2024-01-25T06:58:55;97581.25;;;27.70;28.80
54816;BME280;40715;55.752;37.884;2024-01-25T07:01:22;97589.84;;;27.74;28.67
54816;BME280;40715;55.752;37.884;2024-01-25T07:03:50;97588.63;;;27.77;28.42
54816;BME280;40715;55.752;37.884;2024-01-25T07:06:18;97593.78;;;27.71;28.60
54816;BME280;40715;55.752;37.884;2024-01-25T07:08:45;97603.56;;;27.72;28.53
54816;BME280;40715;55.752;37.884;2024-01-25T07:11:13;97601.88;;;27.71;28.58
54816;BME280;40715;55.752;37.884;2024-01-25T07:13:42;97600.47;;;27.76;28.52
54816;BME280;40715;55.752;37.884;2024-01-25T07:16:09;97601.16;;;27.84;28.44
54816;BME280;40715;55.752;37.884;2024-01-25T07:18:36;97592.47;;;27.89;28.14
54816;BME280;40715;55.752;37.884;2024-01-25T07:21:04;97598.34;;;27.93;28.10
54816;BME280;40715;55.752;37.884;2024-01-25T07:23:33;97590.81;;;27.88;28.09
54816;BME280;40715;55.752;37.884;2024-01-25T07:26:00;97601.25;;;27.91;28.08
54816;BME280;40715;55.752;37.884;2024-01-25T07:28:27;97596.66;;;27.92;27.94
54816;BME280;40715;55.752;37.884;2024-01-25T07:30:54;97589.31;;;27.85;28.12
54816;BME280;40715;55.752;37.884;2024-01-25T07:33:21;97603.44;;;27.81;28.21
54816;BME280;40715;55.752;37.884;2024-01-25T07:35:48;97605.09;;;27.82;28.14
54816;BME280;40715;55.752;37.884;2024-01-25T07:38:15;97606.97;;;27.81;28.15
54816;BME280;40715;55.752;37.884;2024-01-25T07:40:43;97603.88;;;27.84;28.20
54816;BME280;40715;55.752;37.884;2024-01-25T07:43:11;97610.19;;;27.92;28.17
54816;BME280;40715;55.752;37.884;2024-01-25T07:45:38;97601.03;;;27.93;28.03
54816;BME280;40715;55.752;37.884;2024-01-25T07:48:07;97597.75;;;27.97;27.94
54816;BME280;40715;55.752;37.884;2024-01-25T07:50:37;97595.72;;;27.99;27.75
54816;BME280;40715;55.752;37.884;2024-01-25T07:53:04;97600.09;;;28.00;27.75
54816;BME280;40715;55.752;37.884;2024-01-25T07:55:31;97596.34;;;28.01;27.72
54816;BME280;40715;55.752;37.884;2024-01-25T07:57:58;97601.56;;;28.03;27.73
54816;BME280;40715;55.752;37.884;2024-01-25T08:00:25;97597.38;;;28.00;27.81
54816;BME280;40715;55.752;37.884;2024-01-25T08:02:52;97594.22;;;27.97;27.90
54816;BME280;40715;55.752;37.884;2024-01-25T08:05:19;97604.88;;;27.98;27.69
54816;BME280;40715;55.752;37.884;2024-01-25T08:07:46;97604.22;;;27.96;27.72
54816;BME280;40715;55.752;37.884;2024-01-25T08:10:14;97596.09;;;27.96;27.82
54816;BME280;40715;55.752;37.884;2024-01-25T08:12:41;97600.44;;;27.97;27.64
54816;BME280;40715;55.752;37.884;2024-01-25T08:15:13;97593.13;;;27.91;27.86
54816;BME280;40715;55.752;37.884;2024-01-25T08:17:41;97569.09;;;27.81;27.93
54816;BME280;40715;55.752;37.884;2024-01-25T08:20:10;97593.19;;;27.98;27.73
54816;BME280;40715;55.752;37.884;2024-01-25T08:22:43;97597.19;;;28.02;27.65
54816;BME280;40715;55.752;37.884;2024-01-25T08:25:10;97597.00;;;28.03;27.59
54816;BME280;40715;55.752;37.884;2024-01-25T08:27:40;97595.34;;;28.02;27.66
54816;BME280;40715;55.752;37.884;2024-01-25T08:30:08;97595.13;;;28.04;27.50
54816;BME280;40715;55.752;37.884;2024-01-25T08:32:35;97583.28;;;28.05;27.41
54816;BME280;40715;55.752;37.884;2024-01-25T08:35:02;97582.38;;;27.98;27.51
54816;BME280;40715;55.752;37.884;2024-01-25T08:37:30;97597.56;;;27.99;27.39
54816;BME280;40715;55.752;37.884;2024-01-25T08:39:58;97587.22;;;28.02;27.44
54816;BME280;40715;55.752;37.884;2024-01-25T08:42:25;97590.16;;;28.07;27.37
54816;BME280;40715;55.752;37.884;2024-01-25T08:44:52;97593.50;;;28.10;27.24
54816;BME280;40715;55.752;37.884;2024-01-25T08:47:19;97586.69;;;28.14;27.01
54816;BME280;40715;55.752;37.884;2024-01-25T08:49:46;97587.69;;;28.13;27.05
54816;BME280;40715;55.752;37.884;2024-01-25T08:52:13;97588.72;;;28.12;27.09
54816;BME280;40715;55.752;37.884;2024-01-25T08:54:40;97592.84;;;28.07;27.12
54816;BME280;40715;55.752;37.884;2024-01-25T08:57:09;97592.81;;;28.01;27.07
54816;BME280;40715;55.752;37.884;2024-01-25T08:59:36;97595.97;;;28.04;27.34
54816;BME280;40715;55.752;37.884;2024-01-25T09:02:04;97598.28;;;28.07;27.25
54816;BME280;40715;55.752;37.884;2024-01-25T09:04:33;97578.50;;;28.07;27.03
54816;BME280;40715;55.752;37.884;2024-01-25T09:07:00;97586.88;;;28.12;27.00
54816;BME280;40715;55.752;37.884;2024-01-25T09:09:28;97588.34;;;28.15;27.03
54816;BME280;40715;55.752;37.884;2024-01-25T09:11:56;97585.00;;;28.13;26.90
54816;BME280;40715;55.752;37.884;2024-01-25T09:14:23;97581.88;;;28.16;26.88
54816;BME280;40715;55.752;37.884;2024-01-25T09:16:50;97589.63;;;28.19;26.88
54816;BME280;40715;55.752;37.884;2024-01-25T09:19:17;97586.91;;;28.19;26.75
54816;BME280;40715;55.752;37.884;2024-01-25T09:21:44;97589.19;;;28.15;26.83
54816;BME280;40715;55.752;37.884;2024-01-25T09:24:11;97592.09;;;28.14;26.70
54816;BME280;40715;55.752;37.884;2024-01-25T09:26:38;97597.69;;;28.12;26.82
54816;BME280;40715;55.752;37.884;2024-01-25T09:29:05;97600.59;;;28.11;27.02
54816;BME280;40715;55.752;37.884;2024-01-25T09:31:32;97602.84;;;28.07;26.69
54816;BME280;40715;55.752;37.884;2024-01-25T09:33:59;97596.16;;;28.03;26.83
54816;BME280;40715;55.752;37.884;2024-01-25T09:36:26;97598.28;;;28.07;26.79
54816;BME280;40715;55.752;37.884;2024-01-25T09:38:53;97600.34;;;28.05;26.78
54816;BME280;40715;55.752;37.884;2024-01-25T09:41:20;97598.47;;;28.06;26.82
54816;BME280;40715;55.752;37.884;2024-01-25T09:43:47;97587.63;;;28.06;26.56
54816;BME280;40715;55.752;37.884;2024-01-25T09:46:14;97578.50;;;28.07;26.55
54816;BME280;40715;55.752;37.884;2024-01-25T09:48:43;97578.44;;;28.00;26.63
54816;BME280;40715;55.752;37.884;2024-01-25T09:51:13;97589.25;;;28.00;26.60
54816;BME280;40715;55.752;37.884;2024-01-25T09:53:40;97586.34;;;28.02;26.64
54816;BME280;40715;55.752;37.884;2024-01-25T09:56:12;97575.16;;;28.05;26.64
54816;BME280;40715;55.752;37.884;2024-01-25T09:58:41;97581.84;;;28.09;26.81
54816;BME280;40715;55.752;37.884;2024-01-25T10:01:10;97572.69;;;28.10;26.62
54816;BME280;40715;55.752;37.884;2024-01-25T10:03:39;97567.28;;;28.10;26.57
54816;BME280;40715;55.752;37.884;2024-01-25T10:06:08;97565.66;;;28.16;26.81
54816;BME280;40715;55.752;37.884;2024-01-25T10:08:37;97569.22;;;28.23;26.46
54816;BME280;40715;55.752;37.884;2024-01-25T10:11:05;97576.59;;;28.29;26.56
54816;BME280;40715;55.752;37.884;2024-01-25T10:13:32;97568.47;;;28.29;26.55
54816;BME280;40715;55.752;37.884;2024-01-25T10:15:59;97564.06;;;28.28;26.47
54816;BME280;40715;55.752;37.884;2024-01-25T10:18:26;97563.69;;;28.31;26.53
54816;BME280;40715;55.752;37.884;2024-01-25T10:20:55;97564.13;;;28.35;26.25
54816;BME280;40715;55.752;37.884;2024-01-25T10:23:22;97560.41;;;28.42;26.54
54816;BME280;40715;55.752;37.884;2024-01-25T10:25:49;97563.94;;;28.43;26.23
54816;BME280;40715;55.752;37.884;2024-01-25T10:28:16;97567.50;;;28.44;26.49
54816;BME280;40715;55.752;37.884;2024-01-25T10:30:43;97560.63;;;28.41;26.34
54816;BME280;40715;55.752;37.884;2024-01-25T10:33:11;97558.06;;;28.33;26.45
54816;BME280;40715;55.752;37.884;2024-01-25T10:35:39;97559.75;;;28.34;26.56
54816;BME280;40715;55.752;37.884;2024-01-25T10:38:08;97566.84;;;28.35;26.68
54816;BME280;40715;55.752;37.884;2024-01-25T10:40:36;97572.44;;;28.33;26.76
54816;BME280;40715;55.752;37.884;2024-01-25T10:43:04;97569.53;;;28.35;26.65
54816;BME280;40715;55.752;37.884;2024-01-25T10:45:31;97567.22;;;28.32;26.64
54816;BME280;40715;55.752;37.884;2024-01-25T10:47:59;97565.50;;;28.24;26.84
54816;BME280;40715;55.752;37.884;2024-01-25T10:50:26;97566.13;;;28.26;26.72
54816;BME280;40715;55.752;37.884;2024-01-25T10:52:53;97571.53;;;28.26;26.88
54816;BME280;40715;55.752;37.884;2024-01-25T10:55:21;97567.19;;;28.25;26.71
54816;BME280;40715;55.752;37.884;2024-01-25T10:57:48;97566.53;;;28.23;26.69
54816;BME280;40715;55.752;37.884;2024-01-25T11:00:15;97565.03;;;28.20;26.68
54816;BME280;40715;55.752;37.884;2024-01-25T11:02:44;97575.78;;;28.35;26.65
54816;BME280;40715;55.752;37.884;2024-01-25T11:05:14;97572.69;;;28.38;26.44
54816;BME280;40715;55.752;37.884;2024-01-25T11:07:48;97577.88;;;28.40;26.44
54816;BME280;40715;55.752;37.884;2024-01-25T11:10:22;97569.56;;;28.41;26.33
54816;BME280;40715;55.752;37.884;2024-01-25T11:12:50;97574.97;;;28.35;26.32
54816;BME280;40715;55.752;37.884;2024-01-25T11:15:36;97568.94;;;28.39;26.17
54816;BME280;40715;55.752;37.884;2024-01-25T11:18:07;97581.16;;;28.29;26.10
54816;BME280;40715;55.752;37.884;2024-01-25T11:20:36;97573.63;;;28.24;26.28
54816;BME280;40715;55.752;37.884;2024-01-25T11:23:05;97573.16;;;28.20;26.17
54816;BME280;40715;55.752;37.884;2024-01-25T11:25:34;97576.53;;;28.22;26.42
54816;BME280;40715;55.752;37.884;2024-01-25T11:28:03;97565.84;;;28.14;26.16
54816;BME280;40715;55.752;37.884;2024-01-25T11:30:34;97580.81;;;28.10;26.19
54816;BME280;40715;55.752;37.884;2024-01-25T11:33:06;97575.19;;;28.12;26.27
54816;BME280;40715;55.752;37.884;2024-01-25T11:35:34;97583.13;;;28.13;26.03
54816;BME280;40715;55.752;37.884;2024-01-25T11:38:02;97575.66;;;28.15;25.98
54816;BME280;40715;55.752;37.884;2024-01-25T11:40:29;97579.59;;;28.13;26.03
54816;BME280;40715;55.752;37.884;2024-01-25T11:43:00;97580.25;;;28.15;25.82
54816;BME280;40715;55.752;37.884;2024-01-25T11:45:28;97587.31;;;28.16;25.67
54816;BME280;40715;55.752;37.884;2024-01-25T11:47:55;97580.88;;;28.17;25.73
54816;BME280;40715;55.752;37.884;2024-01-25T11:50:22;97592.56;;;28.24;25.76
54816;BME280;40715;55.752;37.884;2024-01-25T11:52:50;97590.69;;;28.24;25.52
54816;BME280;40715;55.752;37.884;2024-01-25T11:55:17;97582.00;;;28.29;25.33
54816;BME280;40715;55.752;37.884;2024-01-25T11:57:44;97593.47;;;28.31;25.31
54816;BME280;40715;55.752;37.884;2024-01-25T12:00:13;97590.13;;;28.29;25.33
54816;BME280;40715;55.752;37.884;2024-01-25T12:02:42;97587.66;;;28.34;25.19
54816;BME280;40715;55.752;37.884;2024-01-25T12:05:10;97585.34;;;28.31;25.13
54816;BME280;40715;55.752;37.884;2024-01-25T12:07:39;97585.09;;;28.26;25.33
54816;BME280;40715;55.752;37.884;2024-01-25T12:10:08;97582.78;;;28.23;25.14
54816;BME280;40715;55.752;37.884;2024-01-25T12:12:37;97579.31;;;28.07;25.19
54816;BME280;40715;55.752;37.884;2024-01-25T12:15:07;97591.81;;;28.09;25.36
54816;BME280;40715;55.752;37.884;2024-01-25T12:17:34;97580.69;;;27.97;25.18
54816;BME280;40715;55.752;37.884;2024-01-25T12:20:10;97589.91;;;28.02;25.41
54816;BME280;40715;55.752;37.884;2024-01-25T12:22:38;97581.19;;;28.07;25.30
54816;BME280;40715;55.752;37.884;2024-01-25T12:25:09;97589.06;;;28.02;25.24
54816;BME280;40715;55.752;37.884;2024-01-25T12:27:39;97591.44;;;27.90;25.26
54816;BME280;40715;55.752;37.884;2024-01-25T12:30:08;97588.84;;;27.82;25.42
54816;BME280;40715;55.752;37.884;2024-01-25T12:32:35;97593.66;;;27.80;25.33
54816;BME280;40715;55.752;37.884;2024-01-25T12:35:02;97584.50;;;27.81;25.36
54816;BME280;40715;55.752;37.884;2024-01-25T12:37:34;97587.75;;;27.76;25.43
54816;BME280;40715;55.752;37.884;2024-01-25T12:40:01;97593.25;;;27.83;25.11
54816;BME280;40715;55.752;37.884;2024-01-25T12:42:30;97589.31;;;27.85;25.15
54816;BME280;40715;55.752;37.884;2024-01-25T12:44:58;97598.94;;;27.88;25.14
54816;BME280;40715;55.752;37.884;2024-01-25T12:47:25;97592.66;;;27.87;25.02
54816;BME280;40715;55.752;37.884;2024-01-25T12:49:52;97588.66;;;27.83;25.09
54816;BME280;40715;55.752;37.884;2024-01-25T12:52:19;97603.69;;;27.86;25.16